Time;durP1;ratioP1;P1;durP2;ratioP2;P2;SDS_P1;SDS_P2;PMS_P1;PMS_P2;Temp;Humidity;BMP_temperature;BMP_pressure;BME280_temperature;BME280_humidity;BME280_pressure;Samples;Min_cycle;Max_cycle;Signal;HPM_P1;HPM_P2
2022/03/17 00:01:03;;;;;;;;;;;;;;;;;;4966523;28;123403;-65
2022/03/17 00:03:29;;;;;;;;;;;;;;;;;;4957137;28;136512;-65
2022/03/17 00:05:56;;;;;;;;;;;;;;;;;;4954413;28;122558;-65
2022/03/17 00:08:22;;;;;;;;;;;;;;;;;;4970202;28;135200;-65
2022/03/17 00:10:49;;;;;;;;;;;;;;;;;;4968720;28;136915;-65
2022/03/17 00:13:15;;;;;;;;;;;;;;;;;;4971737;28;122460;-65
2022/03/17 00:15:41;;;;;;;;;;;;;;;;;;4960304;28;137240;-65
2022/03/17 00:18:08;;;;;;;;;;;;;;;;;;4954360;28;121448;-65
2022/03/17 00:20:34;;;;;;;;;;;;;;;;;;4965284;28;122767;-65
2022/03/17 00:23:00;;;;;;;;;;;;;;;;;;4965355;28;133123;-66
2022/03/17 00:25:29;;;;;;;;;;;;;;;;;;4959064;28;137767;-65
2022/03/17 00:27:55;;;;;;;;;;;;;;;;;;4972123;28;137284;-65
2022/03/17 00:30:22;;;;;;;;;;;;;;;;;;4956797;28;134524;-64
2022/03/17 00:32:48;;;;;;;;;;;;;;;;;;4958857;28;121602;-64
2022/03/17 00:37:59;;;;;;;;;;;;;;;;;;4966863;28;136932;-64
2022/03/17 00:40:25;;;;;;;;;;;;;;;;;;4970801;28;123172;-65
2022/03/17 00:42:53;;;;;;;;;;;;;;;;;;4959457;28;135674;-65
2022/03/17 00:45:19;;;;;;;;;;;;;;;;;;4970456;28;131767;-64
2022/03/17 00:47:45;;;;;;;;;;;;;;;;;;4989531;28;122797;-65
2022/03/17 00:50:12;;;;;;;;;;;;;;;;;;4953357;28;107260;-65
2022/03/17 00:52:38;;;;;;;;;;;;;;;;;;4957224;28;124901;-65
2022/03/17 00:55:05;;;;;;;;;;;;;;;;;;4969875;28;135271;-65
2022/03/17 00:57:32;;;;;;;;;;;;;;;;;;4969247;28;135052;-64
2022/03/17 00:59:58;;;;;;;;;;;;;;;;;;4972429;28;106205;-64
2022/03/17 01:02:24;;;;;;;;;;;;;;;;;;4956735;28;136376;-64
2022/03/17 01:04:51;;;;;;;;;;;;;;;;;;4955800;28;135784;-64
2022/03/17 01:07:17;;;;;;;;;;;;;;;;;;4963333;28;123223;-64
2022/03/17 01:09:44;;;;;;;;;;;;;;;;;;4969366;28;107410;-64
2022/03/17 01:12:10;;;;;;;;;;;;;;;;;;4968575;28;106730;-65
2022/03/17 01:14:36;;;;;;;;;;;;;;;;;;4970041;28;136218;-66
2022/03/17 01:17:03;;;;;;;;;;;;;;;;;;4960346;28;137044;-64
2022/03/17 01:19:29;;;;;;;;;;;;;;;;;;4952482;28;106243;-64
2022/03/17 01:21:56;;;;;;;;;;;;;;;;;;4952374;28;106711;-64
2022/03/17 01:24:22;;;;;;;;;;;;;;;;;;4967811;28;136160;-64
2022/03/17 01:26:49;;;;;;;;;;;;;;;;;;4966804;28;123453;-65
2022/03/17 01:29:19;;;;;;;;;;;;;;;;;;4957341;28;136279;-64
2022/03/17 01:31:46;;;;;;;;;;;;;;;;;;4954279;28;106293;-64
2022/03/17 01:34:12;;;;;;;;;;;;;;;;;;4968176;28;136000;-65
2022/03/17 01:36:38;;;;;;;;;;;;;;;;;;4965755;28;136292;-65
2022/03/17 01:39:04;;;;;;;;;;;;;;;;;;4959980;28;123082;-65
2022/03/17 01:41:31;;;;;;;;;;;;;;;;;;4932586;28;127209;-64
2022/03/17 01:43:57;;;;;;;;;;;;;;;;;;4967498;28;106275;-64
2022/03/17 01:46:23;;;;;;;;;;;;;;;;;;4970372;28;106832;-64
2022/03/17 01:48:50;;;;;;;;;;;;;;;;;;4951544;28;136963;-65
2022/03/17 01:51:16;;;;;;;;;;;;;;;;;;4970825;28;118188;-65
2022/03/17 01:53:43;;;;;;;;;;;;;;;;;;4972247;28;107049;-65
2022/03/17 01:56:09;;;;;;;;;;;;;;;;;;4968465;28;136547;-66
2022/03/17 01:58:35;;;;;;;;;;;;;;;;;;4970328;28;121819;-65
2022/03/17 02:01:02;;;;;;;;;;;;;;;;;;4956867;28;105862;-65
2022/03/17 02:03:28;;;;;;;;;;;;;;;;;;4959716;28;136163;-65
2022/03/17 02:05:55;;;;;;;;;;;;;;;;;;4968303;28;125441;-65
2022/03/17 02:08:21;;;;;;;;;;;;;;;;;;4969704;28;136496;-64
2022/03/17 02:13:32;;;;;;;;;;;;;;;;;;4979722;22;123684;-64
2022/03/17 02:16:02;;;;;;;;;;;;;;;;;;4969621;28;135166;-64
2022/03/17 02:18:28;;;;;;;;;;;;;;;;;;4967999;28;124307;-64
2022/03/17 02:20:57;;;;;;;;;;;;;;;;;;4970127;28;135419;-64
2022/03/17 02:26:09;;;;;;;;;;;;;;;;;;4967896;28;107743;-67
2022/03/17 02:28:39;;;;;;;;;;;;;;;;;;4962951;28;135243;-64
2022/03/17 02:31:06;;;;;;;;;;;;;;;;;;4961013;28;134652;-65
2022/03/17 02:33:32;;;;;;;;;;;;;;;;;;4968502;28;106819;-64
2022/03/17 02:35:59;;;;;;;;;;;;;;;;;;4973310;28;137761;-65
2022/03/17 02:38:26;;;;;;;;;;;;;;;;;;4969531;28;105929;-65
2022/03/17 02:40:52;;;;;;;;;;;;;;;;;;4970278;28;132920;-65
2022/03/17 02:43:19;;;;;;;;;;;;;;;;;;4968397;28;111815;-65
2022/03/17 02:45:45;;;;;;;;;;;;;;;;;;4967717;28;120155;-65
2022/03/17 02:48:11;;;;;;;;;;;;;;;;;;4969704;28;137060;-65
2022/03/17 02:50:38;;;;;;;;;;;;;;;;;;4964840;28;134268;-64
2022/03/17 02:53:05;;;;;;;;;;;;;;;;;;4959814;28;107332;-66
2022/03/17 02:55:32;;;;;;;;;;;;;;;;;;4964267;28;136635;-65
2022/03/17 02:57:58;;;;;;;;;;;;;;;;;;4970715;28;136295;-65
2022/03/17 03:00:24;;;;;;;;;;;;;;;;;;4968094;28;136911;-65
2022/03/17 03:02:50;;;;;;;;;;;;;;;;;;4968830;28;137315;-64
2022/03/17 03:05:17;;;;;;;;;;;;;;;;;;4958638;28;116739;-65
2022/03/17 03:07:44;;;;;;;;;;;;;;;;;;4967782;28;138780;-65
2022/03/17 03:10:10;;;;;;;;;;;;;;;;;;4969161;28;106454;-67
2022/03/17 03:12:37;;;;;;;;;;;;;;;;;;4970064;28;105931;-65
2022/03/17 03:15:04;;;;;;;;;;;;;;;;;;4957958;28;107061;-67
2022/03/17 03:17:30;;;;;;;;;;;;;;;;;;4960923;28;126241;-65
2022/03/17 03:19:57;;;;;;;;;;;;;;;;;;4972239;28;125607;-65
2022/03/17 03:22:28;;;;;;;;;;;;;;;;;;4964212;28;136760;-65
2022/03/17 03:24:55;;;;;;;;;;;;;;;;;;4961977;28;113044;-65
2022/03/17 03:27:23;;;;;;;;;;;;;;;;;;4969843;28;107174;-65
2022/03/17 03:29:49;;;;;;;;;;;;;;;;;;4967325;28;137952;-65
2022/03/17 03:32:16;;;;;;;;;;;;;;;;;;4967256;28;115810;-65
2022/03/17 03:34:42;;;;;;;;;;;;;;;;;;4967898;28;136312;-65
2022/03/17 03:37:23;;;;;;;;;;;;;;;;;;4963422;28;136861;-66
2022/03/17 03:39:50;;;;;;;;;;;;;;;;;;4978759;28;119620;-65
2022/03/17 03:42:16;;;;;;;;;;;;;;;;;;4967501;28;137042;-65
2022/03/17 03:44:42;;;;;;;;;;;;;;;;;;4958118;28;125546;-65
2022/03/17 03:47:09;;;;;;;;;;;;;;;;;;4963339;28;135955;-67
2022/03/17 03:49:38;;;;;;;;;;;;;;;;;;4966322;28;135451;-65
2022/03/17 03:52:05;;;;;;;;;;;;;;;;;;4958012;28;118703;-66
2022/03/17 03:54:31;;;;;;;;;;;;;;;;;;4962026;28;112957;-65
2022/03/17 03:56:57;;;;;;;;;;;;;;;;;;4968539;28;137622;-65
2022/03/17 03:59:23;;;;;;;;;;;;;;;;;;4966883;28;121674;-65
2022/03/17 04:01:50;;;;;;;;;;;;;;;;;;4963054;28;126288;-65
2022/03/17 04:04:20;;;;;;;;;;;;;;;;;;4965907;28;123035;-65
2022/03/17 04:06:46;;;;;;;;;;;;;;;;;;4968220;28;135325;-65
2022/03/17 04:09:13;;;;;;;;;;;;;;;;;;4956806;28;137096;-65
2022/03/17 04:11:39;;;;;;;;;;;;;;;;;;4965983;28;123356;-65
2022/03/17 04:14:06;;;;;;;;;;;;;;;;;;4963600;28;131302;-65
2022/03/17 04:16:32;;;;;;;;;;;;;;;;;;4963018;28;135574;-65
2022/03/17 04:18:59;;;;;;;;;;;;;;;;;;4963988;28;122152;-64
2022/03/17 04:21:25;;;;;;;;;;;;;;;;;;4963651;28;135295;-65
2022/03/17 04:23:51;;;;;;;;;;;;;;;;;;4972777;28;110282;-65
2022/03/17 04:26:18;;;;;;;;;;;;;;;;;;4960134;28;135945;-65
2022/03/17 04:28:44;;;;;;;;;;;;;;;;;;4968267;28;137022;-64
2022/03/17 04:31:11;;;;;;;;;;;;;;;;;;4954404;28;122606;-66
2022/03/17 04:33:37;;;;;;;;;;;;;;;;;;4961198;28;133757;-65
2022/03/17 04:36:03;;;;;;;;;;;;;;;;;;4962535;28;136989;-65
2022/03/17 04:38:30;;;;;;;;;;;;;;;;;;4966273;28;121818;-65
2022/03/17 04:40:56;;;;;;;;;;;;;;;;;;4967527;28;114441;-65
2022/03/17 04:43:22;;;;;;;;;;;;;;;;;;4963165;28;135883;-65
2022/03/17 04:45:48;;;;;;;;;;;;;;;;;;4966987;28;124093;-65
2022/03/17 04:48:15;;;;;;;;;;;;;;;;;;4966941;28;136269;-65
2022/03/17 04:50:41;;;;;;;;;;;;;;;;;;4968369;28;119753;-65
2022/03/17 04:55:52;;;;;;;;;;;;;;;;;;4951194;28;133667;-65
2022/03/17 04:58:18;;;;;;;;;;;;;;;;;;4970348;28;125658;-65
2022/03/17 05:00:46;;;;;;;;;;;;;;;;;;4965222;28;108960;-65
2022/03/17 05:03:12;;;;;;;;;;;;;;;;;;4966369;28;123481;-65
2022/03/17 05:05:38;;;;;;;;;;;;;;;;;;4984174;28;124058;-65
2022/03/17 05:08:05;;;;;;;;;;;;;;;;;;4972612;28;106581;-65
2022/03/17 05:10:31;;;;;;;;;;;;;;;;;;4968514;28;123672;-64
2022/03/17 05:13:00;;;;;;;;;;;;;;;;;;4985985;28;130020;-65
2022/03/17 05:15:26;;;;;;;;;;;;;;;;;;4966364;28;137143;-66
2022/03/17 05:17:53;;;;;;;;;;;;;;;;;;4962694;28;106857;-65
2022/03/17 05:20:19;;;;;;;;;;;;;;;;;;4969573;28;135726;-64
2022/03/17 05:22:45;;;;;;;;;;;;;;;;;;4968441;28;136901;-64
2022/03/17 05:25:12;;;;;;;;;;;;;;;;;;4970368;28;123572;-65
2022/03/17 05:27:38;;;;;;;;;;;;;;;;;;4959753;28;135611;-65
2022/03/17 05:30:05;;;;;;;;;;;;;;;;;;4970781;28;138471;-65
2022/03/17 05:32:31;;;;;;;;;;;;;;;;;;4969727;28;137091;-65
2022/03/17 05:34:57;;;;;;;;;;;;;;;;;;4966565;28;137283;-65
2022/03/17 05:37:24;;;;;;;;;;;;;;;;;;4963084;28;123222;-65
2022/03/17 05:39:50;;;;;;;;;;;;;;;;;;4968310;28;136299;-65
2022/03/17 05:42:17;;;;;;;;;;;;;;;;;;4970892;28;111265;-65
2022/03/17 05:44:43;;;;;;;;;;;;;;;;;;4958092;28;122413;-65
2022/03/17 05:47:09;;;;;;;;;;;;;;;;;;4965436;28;135717;-67
2022/03/17 05:49:36;;;;;;;;;;;;;;;;;;4967591;28;136378;-65
2022/03/17 05:52:02;;;;;;;;;;;;;;;;;;4967986;28;136444;-65
2022/03/17 05:54:29;;;;;;;;;;;;;;;;;;4969444;28;137988;-65
2022/03/17 05:56:55;;;;;;;;;;;;;;;;;;4964322;28;106605;-65
2022/03/17 05:59:21;;;;;;;;;;;;;;;;;;4962442;28;137420;-65
2022/03/17 06:01:47;;;;;;;;;;;;;;;;;;4963591;28;137244;-65
2022/03/17 06:04:34;;;;;;;;;;;;;;;;;;4971802;28;106259;-66
2022/03/17 06:07:00;;;;;;;;;;;;;;;;;;4967697;28;138200;-65
2022/03/17 06:09:26;;;;;;;;;;;;;;;;;;4964619;28;135864;-65
2022/03/17 06:11:55;;;;;;;;;;;;;;;;;;4970595;28;125298;-65
2022/03/17 06:14:21;;;;;;;;;;;;;;;;;;4965371;28;136864;-65
2022/03/17 06:16:48;;;;;;;;;;;;;;;;;;4966777;28;123144;-65
2022/03/17 06:19:14;;;;;;;;;;;;;;;;;;4966203;28;106462;-65
2022/03/17 06:21:40;;;;;;;;;;;;;;;;;;4966769;28;127661;-64
2022/03/17 06:24:07;;;;;;;;;;;;;;;;;;4960439;28;123913;-65
2022/03/17 06:26:33;;;;;;;;;;;;;;;;;;4970744;28;133525;-65
2022/03/17 06:28:59;;;;;;;;;;;;;;;;;;4960486;28;135225;-64
2022/03/17 06:31:25;;;;;;;;;;;;;;;;;;4965680;28;123471;-64
2022/03/17 06:33:52;;;;;;;;;;;;;;;;;;4966403;28;136501;-64
2022/03/17 06:36:18;;;;;;;;;;;;;;;;;;4964489;28;125272;-65
2022/03/17 06:38:44;;;;;;;;;;;;;;;;;;4962376;28;121095;-67
2022/03/17 06:41:11;;;;;;;;;;;;;;;;;;4962813;28;134153;-69
2022/03/17 06:43:37;;;;;;;;;;;;;;;;;;4970208;28;120117;-65
2022/03/17 06:46:04;;;;;;;;;;;;;;;;;;4959083;28;135963;-65
2022/03/17 06:48:30;;;;;;;;;;;;;;;;;;4967659;28;107559;-65
2022/03/17 06:50:57;;;;;;;;;;;;;;;;;;4970410;28;123087;-65
2022/03/17 06:53:23;;;;;;;;;;;;;;;;;;4965822;28;135731;-67
2022/03/17 06:55:49;;;;;;;;;;;;;;;;;;4965782;28;137137;-65
2022/03/17 06:58:16;;;;;;;;;;;;;;;;;;4966719;28;134644;-66
2022/03/17 07:00:42;;;;;;;;;;;;;;;;;;4961344;28;136651;-65
2022/03/17 07:03:12;;;;;;;;;;;;;;;;;;4957894;28;121898;-65
2022/03/17 07:05:38;;;;;;;;;;;;;;;;;;4968348;28;134867;-65
2022/03/17 07:08:04;;;;;;;;;;;;;;;;;;4966551;28;137044;-66
2022/03/17 07:10:31;;;;;;;;;;;;;;;;;;4969373;28;121809;-65
2022/03/17 07:12:58;;;;;;;;;;;;;;;;;;4968803;28;136582;-65
2022/03/17 07:15:24;;;;;;;;;;;;;;;;;;4957844;28;137229;-65
2022/03/17 07:17:50;;;;;;;;;;;;;;;;;;4958341;28;121994;-65
2022/03/17 07:20:17;;;;;;;;;;;;;;;;;;4968625;28;136595;-66
2022/03/17 07:22:43;;;;;;;;;;;;;;;;;;4962880;28;123296;-65
2022/03/17 07:25:09;;;;;;;;;;;;;;;;;;4964555;28;136348;-67
2022/03/17 07:27:36;;;;;;;;;;;;;;;;;;4968645;28;136801;-66
2022/03/17 07:30:02;;;;;;;;;;;;;;;;;;4961830;28;120124;-65
2022/03/17 07:32:31;;;;;;;;;;;;;;;;;;4967850;28;134615;-65
2022/03/17 07:34:58;;;;;;;;;;;;;;;;;;4975215;28;137801;-66
2022/03/17 07:37:24;;;;;;;;;;;;;;;;;;4968198;28;122353;-66
2022/03/17 07:39:50;;;;;;;;;;;;;;;;;;4961227;28;136641;-66
2022/03/17 07:42:17;;;;;;;;;;;;;;;;;;4963489;28;123283;-67
2022/03/17 07:45:12;;;;;;;;;;;;;;;;;;4943017;28;107282;-66
2022/03/17 07:47:57;;;;;;;;;;;;;;;;;;4964167;28;106607;-65
2022/03/17 07:50:23;;;;;;;;;;;;;;;;;;4968956;28;109745;-66
2022/03/17 07:52:50;;;;;;;;;;;;;;;;;;4964520;28;135595;-69
2022/03/17 07:55:17;;;;;;;;;;;;;;;;;;4968164;28;138784;-69
2022/03/17 07:57:43;;;;;;;;;;;;;;;;;;4962901;28;110680;-68
2022/03/17 08:00:11;;;;;;;;;;;;;;;;;;4957839;28;135247;-68
2022/03/17 08:02:43;;;;;;;;;;;;;;;;;;4962753;28;106207;-67
2022/03/17 08:05:10;;;;;;;;;;;;;;;;;;4962391;28;107558;-67
2022/03/17 08:07:36;;;;;;;;;;;;;;;;;;4964742;28;135488;-66
2022/03/17 08:10:02;;;;;;;;;;;;;;;;;;4963864;28;124198;-70
2022/03/17 08:12:31;;;;;;;;;;;;;;;;;;4968084;28;107043;-66
2022/03/17 08:14:57;;;;;;;;;;;;;;;;;;4963183;28;137056;-66
2022/03/17 08:17:23;;;;;;;;;;;;;;;;;;4957348;28;123915;-66
2022/03/17 08:19:50;;;;;;;;;;;;;;;;;;4962281;28;136864;-66
2022/03/17 08:22:16;;;;;;;;;;;;;;;;;;4967022;28;136047;-65
2022/03/17 08:24:42;;;;;;;;;;;;;;;;;;4962924;28;135606;-65
2022/03/17 08:27:09;;;;;;;;;;;;;;;;;;4969873;28;138213;-66
2022/03/17 08:29:40;;;;;;;;;;;;;;;;;;4967605;28;123374;-65
2022/03/17 08:32:06;;;;;;;;;;;;;;;;;;4963000;28;135950;-65
2022/03/17 08:34:33;;;;;;;;;;;;;;;;;;4961965;28;137394;-65
2022/03/17 08:36:59;;;;;;;;;;;;;;;;;;4963357;28;107203;-64
2022/03/17 08:39:26;;;;;;;;;;;;;;;;;;4964705;28;136517;-65
2022/03/17 08:41:52;;;;;;;;;;;;;;;;;;4962354;28;136087;-65
2022/03/17 08:44:18;;;;;;;;;;;;;;;;;;4964501;28;122014;-66
2022/03/17 08:49:30;;;;;;;;;;;;;;;;;;4959109;28;123414;-68
2022/03/17 08:51:56;;;;;;;;;;;;;;;;;;4961927;28;136240;-65
2022/03/17 08:54:22;;;;;;;;;;;;;;;;;;4962971;28;109704;-65
2022/03/17 08:56:49;;;;;;;;;;;;;;;;;;4963972;28;122442;-64
2022/03/17 08:59:15;;;;;;;;;;;;;;;;;;4963452;28;133570;-65
2022/03/17 09:01:41;;;;;;;;;;;;;;;;;;4961047;28;137088;-68
2022/03/17 09:04:08;;;;;;;;;;;;;;;;;;4968145;28;115251;-65
2022/03/17 09:06:35;;;;;;;;;;;;;;;;;;4967921;28;109473;-64
2022/03/17 09:09:01;;;;;;;;;;;;;;;;;;4959415;28;122951;-65
2022/03/17 09:11:28;;;;;;;;;;;;;;;;;;4959360;28;134847;-66
2022/03/17 09:13:58;;;;;;;;;;;;;;;;;;4964785;28;134078;-65
2022/03/17 09:16:24;;;;;;;;;;;;;;;;;;4962601;28;122133;-65
2022/03/17 09:18:50;;;;;;;;;;;;;;;;;;4962587;28;135467;-64
2022/03/17 09:21:17;;;;;;;;;;;;;;;;;;4968941;28;137019;-66
2022/03/17 09:23:43;;;;;;;;;;;;;;;;;;4968978;28;123202;-64
2022/03/17 09:26:10;;;;;;;;;;;;;;;;;;4969127;28;126747;-65
2022/03/17 09:28:36;;;;;;;;;;;;;;;;;;4972127;28;135722;-67
2022/03/17 09:31:03;;;;;;;;;;;;;;;;;;4969392;28;106956;-65
2022/03/17 09:33:29;;;;;;;;;;;;;;;;;;4969054;28;137053;-65
2022/03/17 09:35:56;;;;;;;;;;;;;;;;;;4967880;28;123270;-65
2022/03/17 09:38:22;;;;;;;;;;;;;;;;;;4971680;28;106841;-65
2022/03/17 09:40:48;;;;;;;;;;;;;;;;;;4966578;28;137208;-65
2022/03/17 09:43:28;;;;;;;;;;;;;;;;;;4969994;28;122998;-65
2022/03/17 09:45:54;;;;;;;;;;;;;;;;;;4960419;28;130014;-65
2022/03/17 09:48:21;;;;;;;;;;;;;;;;;;4965835;28;135440;-66
2022/03/17 09:50:47;;;;;;;;;;;;;;;;;;4971094;28;114921;-66
2022/03/17 09:53:13;;;;;;;;;;;;;;;;;;4970131;28;111096;-65
2022/03/17 09:55:43;;;;;;;;;;;;;;;;;;4964909;28;121735;-66
2022/03/17 09:58:10;;;;;;;;;;;;;;;;;;4961141;28;136151;-66
2022/03/17 10:00:48;;;;;;;;;;;;;;;;;;4965753;28;137130;-66
2022/03/17 10:03:14;;;;;;;;;;;;;;;;;;4964787;28;107849;-66
2022/03/17 10:05:41;;;;;;;;;;;;;;;;;;4965433;28;136313;-65
2022/03/17 10:08:07;;;;;;;;;;;;;;;;;;4959077;28;129051;-66
2022/03/17 10:10:33;;;;;;;;;;;;;;;;;;4972816;28;122428;-70
2022/03/17 10:13:00;;;;;;;;;;;;;;;;;;4964848;28;137555;-66
2022/03/17 10:15:26;;;;;;;;;;;;;;;;;;4965375;28;122052;-65
2022/03/17 10:17:52;;;;;;;;;;;;;;;;;;4967642;28;136577;-64
2022/03/17 10:20:19;;;;;;;;;;;;;;;;;;4966730;28;136331;-65
2022/03/17 10:22:45;;;;;;;;;;;;;;;;;;4969975;28;123762;-64
2022/03/17 10:25:12;;;;;;;;;;;;;;;;;;4969352;28;136561;-66
2022/03/17 10:27:38;;;;;;;;;;;;;;;;;;4969847;28;132358;-65
2022/03/17 10:30:07;;;;;;;;;;;;;;;;;;4964021;28;119203;-65
2022/03/17 10:32:34;;;;;;;;;;;;;;;;;;4970689;28;136327;-68
2022/03/17 10:35:00;;;;;;;;;;;;;;;;;;4969634;28;123235;-65
2022/03/17 10:37:30;;;;;;;;;;;;;;;;;;4966400;28;106817;-65
2022/03/17 10:39:56;;;;;;;;;;;;;;;;;;4969174;28;135368;-64
2022/03/17 10:42:22;;;;;;;;;;;;;;;;;;4966326;28;125843;-63
2022/03/17 10:44:49;;;;;;;;;;;;;;;;;;4968934;28;138050;-64
2022/03/17 10:47:15;;;;;;;;;;;;;;;;;;4965791;28;137479;-67
2022/03/17 10:49:41;;;;;;;;;;;;;;;;;;4968566;28;123303;-66
2022/03/17 10:52:08;;;;;;;;;;;;;;;;;;4968643;28;108602;-67
2022/03/17 10:54:34;;;;;;;;;;;;;;;;;;4968385;28;108624;-67
2022/03/17 10:57:02;;;;;;;;;;;;;;;;;;4965065;28;136610;-68
2022/03/17 10:59:29;;;;;;;;;;;;;;;;;;4968464;28;136753;-67
2022/03/17 11:01:56;;;;;;;;;;;;;;;;;;4963708;28;123131;-66
2022/03/17 11:04:22;;;;;;;;;;;;;;;;;;4966462;28;127135;-67
2022/03/17 11:06:54;;;;;;;;;;;;;;;;;;4967358;28;137799;-66
2022/03/17 11:09:23;;;;;;;;;;;;;;;;;;4965662;28;110527;-67
2022/03/17 11:11:49;;;;;;;;;;;;;;;;;;4969274;28;137442;-66
2022/03/17 11:14:15;;;;;;;;;;;;;;;;;;4955486;28;135822;-67
2022/03/17 11:16:41;;;;;;;;;;;;;;;;;;4969084;28;123207;-67
2022/03/17 11:19:12;;;;;;;;;;;;;;;;;;4968707;28;107115;-68
2022/03/17 11:21:39;;;;;;;;;;;;;;;;;;4964696;28;121952;-66
2022/03/17 11:24:05;;;;;;;;;;;;;;;;;;4960230;28;106821;-65
2022/03/17 11:26:35;;;;;;;;;;;;;;;;;;4962704;28;107768;-67
2022/03/17 11:29:03;;;;;;;;;;;;;;;;;;4960889;28;107431;-66
2022/03/17 11:31:30;;;;;;;;;;;;;;;;;;4965309;28;106068;-68
2022/03/17 11:33:56;;;;;;;;;;;;;;;;;;4968111;28;137274;-66
2022/03/17 11:36:23;;;;;;;;;;;;;;;;;;4968560;28;119912;-67
2022/03/17 11:39:09;;;;;;;;;;;;;;;;;;4969154;28;137284;-66
2022/03/17 11:41:35;;;;;;;;;;;;;;;;;;4982562;28;123907;-67
2022/03/17 11:44:01;;;;;;;;;;;;;;;;;;4969341;28;138265;-67
2022/03/17 11:46:28;;;;;;;;;;;;;;;;;;4961533;28;136909;-67
2022/03/17 11:48:57;;;;;;;;;;;;;;;;;;4964495;28;107233;-66
2022/03/17 11:51:23;;;;;;;;;;;;;;;;;;4966825;28;136453;-67
2022/03/17 11:53:49;;;;;;;;;;;;;;;;;;4967183;28;121278;-67
2022/03/17 11:56:22;;;;;;;;;;;;;;;;;;4966002;28;110706;-67
2022/03/17 11:58:48;;;;;;;;;;;;;;;;;;4958706;28;136708;-67
2022/03/17 12:01:15;;;;;;;;;;;;;;;;;;4969026;28;107005;-67
2022/03/17 12:03:41;;;;;;;;;;;;;;;;;;4968339;28;128458;-67
2022/03/17 12:06:08;;;;;;;;;;;;;;;;;;4960805;28;137602;-69
2022/03/17 12:08:34;;;;;;;;;;;;;;;;;;4967724;28;116933;-69
2022/03/17 12:11:01;;;;;;;;;;;;;;;;;;4960546;28;134879;-68
2022/03/17 12:13:27;;;;;;;;;;;;;;;;;;4955635;28;134962;-67
2022/03/17 12:15:54;;;;;;;;;;;;;;;;;;4965949;28;124292;-67
2022/03/17 12:18:21;;;;;;;;;;;;;;;;;;4967364;28;119676;-67
2022/03/17 12:20:47;;;;;;;;;;;;;;;;;;4971116;28;138020;-66
2022/03/17 12:23:13;;;;;;;;;;;;;;;;;;4966026;28;119538;-67
2022/03/17 12:25:42;;;;;;;;;;;;;;;;;;4968899;28;135577;-67
2022/03/17 12:28:10;;;;;;;;;;;;;;;;;;4965465;28;122568;-67
2022/03/17 12:30:38;;;;;;;;;;;;;;;;;;4964373;28;136762;-65
2022/03/17 12:33:06;;;;;;;;;;;;;;;;;;4966174;28;134601;-69
2022/03/17 12:35:38;;;;;;;;;;;;;;;;;;4968525;28;121575;-67
2022/03/17 12:38:05;;;;;;;;;;;;;;;;;;4964241;28;128479;-68
2022/03/17 12:40:31;;;;;;;;;;;;;;;;;;4966377;28;135200;-67
2022/03/17 12:42:58;;;;;;;;;;;;;;;;;;4972135;28;106512;-66
2022/03/17 12:45:24;;;;;;;;;;;;;;;;;;4960001;28;131426;-66
2022/03/17 12:47:56;;;;;;;;;;;;;;;;;;4959487;28;122149;-66
2022/03/17 12:50:22;;;;;;;;;;;;;;;;;;4967088;28;136037;-66
2022/03/17 12:52:49;;;;;;;;;;;;;;;;;;4966564;28;136100;-66
2022/03/17 12:55:15;;;;;;;;;;;;;;;;;;4966857;28;108445;-68
2022/03/17 12:57:41;;;;;;;;;;;;;;;;;;4979443;28;109369;-66
2022/03/17 13:00:08;;;;;;;;;;;;;;;;;;4955745;28;136511;-67
2022/03/17 13:02:34;;;;;;;;;;;;;;;;;;4962919;28;115606;-68
2022/03/17 13:07:45;;;;;;;;;;;;;;;;;;4963696;28;125373;-66
2022/03/17 13:10:12;;;;;;;;;;;;;;;;;;4964112;28;136912;-66
2022/03/17 13:15:26;;;;;;;;;;;;;;;;;;4963144;28;122607;-67
2022/03/17 13:17:53;;;;;;;;;;;;;;;;;;4964809;28;137313;-67
2022/03/17 13:20:22;;;;;;;;;;;;;;;;;;4964938;28;136465;-67
2022/03/17 13:22:49;;;;;;;;;;;;;;;;;;4970848;28;106695;-68
2022/03/17 13:25:16;;;;;;;;;;;;;;;;;;4962072;28;106707;-67
2022/03/17 13:27:42;;;;;;;;;;;;;;;;;;4973107;28;135644;-68
2022/03/17 13:30:08;;;;;;;;;;;;;;;;;;4965683;28;136653;-67
2022/03/17 13:32:35;;;;;;;;;;;;;;;;;;4967970;28;137734;-68
2022/03/17 13:35:01;;;;;;;;;;;;;;;;;;4970238;28;125438;-67
2022/03/17 13:37:27;;;;;;;;;;;;;;;;;;4964221;28;138206;-69
2022/03/17 13:39:54;;;;;;;;;;;;;;;;;;4972868;28;116547;-69
2022/03/17 13:42:22;;;;;;;;;;;;;;;;;;4969356;28;106119;-67
2022/03/17 13:44:49;;;;;;;;;;;;;;;;;;4960742;28;135580;-67
2022/03/17 13:47:15;;;;;;;;;;;;;;;;;;4961004;28;128292;-67
2022/03/17 13:49:42;;;;;;;;;;;;;;;;;;4974415;28;124466;-68
2022/03/17 13:52:08;;;;;;;;;;;;;;;;;;4960580;28;136268;-68
2022/03/17 13:54:34;;;;;;;;;;;;;;;;;;4965323;28;122467;-69
2022/03/17 13:57:01;;;;;;;;;;;;;;;;;;4970435;28;134377;-67
2022/03/17 13:59:27;;;;;;;;;;;;;;;;;;4965491;28;136705;-67
2022/03/17 14:01:53;;;;;;;;;;;;;;;;;;4966806;28;122705;-67
2022/03/17 14:04:19;;;;;;;;;;;;;;;;;;4969908;28;136020;-67
2022/03/17 14:06:46;;;;;;;;;;;;;;;;;;4963013;28;137954;-67
2022/03/17 14:09:13;;;;;;;;;;;;;;;;;;4972272;28;106975;-67
2022/03/17 14:11:39;;;;;;;;;;;;;;;;;;4967446;28;135404;-68
2022/03/17 14:14:05;;;;;;;;;;;;;;;;;;4960989;28;122766;-67
2022/03/17 14:16:31;;;;;;;;;;;;;;;;;;4969607;28;137328;-68
2022/03/17 14:19:00;;;;;;;;;;;;;;;;;;4963507;28;138139;-66
2022/03/17 14:21:26;;;;;;;;;;;;;;;;;;4966751;28;124163;-66
2022/03/17 14:24:12;;;;;;;;;;;;;;;;;;4966964;28;138039;-67
2022/03/17 14:26:38;;;;;;;;;;;;;;;;;;4967036;28;135636;-68
2022/03/17 14:29:05;;;;;;;;;;;;;;;;;;4966566;28;108400;-67
2022/03/17 14:31:31;;;;;;;;;;;;;;;;;;4970143;28;138439;-67
2022/03/17 14:33:57;;;;;;;;;;;;;;;;;;4964241;28;124392;-67
2022/03/17 14:36:27;;;;;;;;;;;;;;;;;;4965764;28;128956;-67
2022/03/17 14:38:57;;;;;;;;;;;;;;;;;;4967660;28;140817;-67
2022/03/17 14:41:24;;;;;;;;;;;;;;;;;;4965645;28;123385;-68
2022/03/17 14:43:50;;;;;;;;;;;;;;;;;;4959237;28;139319;-67
2022/03/17 14:46:16;;;;;;;;;;;;;;;;;;4978492;28;139103;-66
2022/03/17 14:48:43;;;;;;;;;;;;;;;;;;4963027;28;126484;-68
2022/03/17 14:51:11;;;;;;;;;;;;;;;;;;4964576;28;139000;-69
2022/03/17 14:53:37;;;;;;;;;;;;;;;;;;4962205;28;139955;-66
2022/03/17 14:56:09;;;;;;;;;;;;;;;;;;4965224;28;138165;-67
2022/03/17 14:58:35;;;;;;;;;;;;;;;;;;4961119;28;121463;-68
2022/03/17 15:01:02;;;;;;;;;;;;;;;;;;4963676;28;124136;-68
2022/03/17 15:03:28;;;;;;;;;;;;;;;;;;4957215;28;109857;-66
2022/03/17 15:05:55;;;;;;;;;;;;;;;;;;4965595;28;140556;-66
2022/03/17 15:08:21;;;;;;;;;;;;;;;;;;4956270;28;125976;-66
2022/03/17 15:10:47;;;;;;;;;;;;;;;;;;4955125;28;122239;-68
2022/03/17 15:13:14;;;;;;;;;;;;;;;;;;4964063;28;138542;-66
2022/03/17 15:15:41;;;;;;;;;;;;;;;;;;4966459;28;125492;-66
2022/03/17 15:18:07;;;;;;;;;;;;;;;;;;4963324;28;139019;-66
2022/03/17 15:20:33;;;;;;;;;;;;;;;;;;4963387;28;124059;-66
2022/03/17 15:23:00;;;;;;;;;;;;;;;;;;4966059;28;140257;-66
2022/03/17 15:25:27;;;;;;;;;;;;;;;;;;4964177;28;141206;-66
2022/03/17 15:30:42;;;;;;;;;;;;;;;;;;4960342;28;139121;-67
2022/03/17 15:33:09;;;;;;;;;;;;;;;;;;4962744;28;140282;-71
2022/03/17 15:35:35;;;;;;;;;;;;;;;;;;4963784;28;109091;-68
2022/03/17 15:38:02;;;;;;;;;;;;;;;;;;4969253;28;139400;-68
2022/03/17 15:40:31;;;;;;;;;;;;;;;;;;4962359;28;124569;-67
2022/03/17 15:42:58;;;;;;;;;;;;;;;;;;4963670;28;139096;-68
2022/03/17 15:45:25;;;;;;;;;;;;;;;;;;4962103;28;137275;-68
2022/03/17 15:47:53;;;;;;;;;;;;;;;;;;4960509;28;124810;-68
2022/03/17 15:50:19;;;;;;;;;;;;;;;;;;4961251;28;137928;-68
2022/03/17 15:52:46;;;;;;;;;;;;;;;;;;4963315;28;139156;-68
2022/03/17 15:55:12;;;;;;;;;;;;;;;;;;4960238;28;109347;-68
2022/03/17 15:57:39;;;;;;;;;;;;;;;;;;4961386;28;139476;-68
2022/03/17 16:00:06;;;;;;;;;;;;;;;;;;4963034;28;141451;-68
2022/03/17 16:02:36;;;;;;;;;;;;;;;;;;4965436;28;110289;-68
2022/03/17 16:05:03;;;;;;;;;;;;;;;;;;4961813;28;137027;-67
2022/03/17 16:07:29;;;;;;;;;;;;;;;;;;4964947;28;108738;-68
2022/03/17 16:15:26;;;;;;;;;;;;;;;;;;4963619;28;125502;-69
2022/03/17 16:17:52;;;;;;;;;;;;;;;;;;4959482;28;137999;-69
2022/03/17 16:20:19;;;;;;;;;;;;;;;;;;4969084;28;136743;-69
2022/03/17 16:22:46;;;;;;;;;;;;;;;;;;4957272;28;135822;-69
2022/03/17 16:25:12;;;;;;;;;;;;;;;;;;4954403;28;136615;-67
2022/03/17 16:27:38;;;;;;;;;;;;;;;;;;4964603;28;117783;-67
2022/03/17 16:30:05;;;;;;;;;;;;;;;;;;4957156;28;137525;-68
2022/03/17 16:32:31;;;;;;;;;;;;;;;;;;4960693;28;136568;-68
2022/03/17 16:34:58;;;;;;;;;;;;;;;;;;4963219;28;107092;-68
2022/03/17 16:37:25;;;;;;;;;;;;;;;;;;4966031;28;128819;-68
2022/03/17 16:39:51;;;;;;;;;;;;;;;;;;4958402;28;137107;-67
2022/03/17 16:42:18;;;;;;;;;;;;;;;;;;4964184;28;123335;-66
2022/03/17 16:44:44;;;;;;;;;;;;;;;;;;4964609;28;137534;-68
2022/03/17 16:47:10;;;;;;;;;;;;;;;;;;4968906;28;123030;-68
2022/03/17 16:49:37;;;;;;;;;;;;;;;;;;4969987;28;136974;-66
2022/03/17 16:52:03;;;;;;;;;;;;;;;;;;4967602;28;137009;-68
2022/03/17 16:54:30;;;;;;;;;;;;;;;;;;4965287;28;124458;-67